createdAt,value
2017-12-09T04:30:15.026Z,4.47
2017-12-09T04:32:42.671Z,5.05
2017-12-09T04:35:11.013Z,4.93
2017-12-09T04:37:38.585Z,4.90
2017-12-09T04:40:06.181Z,5.45
2017-12-09T04:42:33.749Z,4.80
2017-12-09T04:45:01.322Z,4.22
2017-12-09T04:47:28.921Z,3.75
2017-12-09T04:49:56.497Z,4.82
2017-12-09T04:52:24.834Z,3.25
2017-12-09T04:54:52.433Z,5.07
2017-12-09T04:57:20.765Z,3.58
2017-12-09T04:59:48.333Z,4.00
2017-12-09T05:02:15.925Z,3.70
2017-12-09T05:04:44.270Z,3.80
2017-12-09T05:07:11.866Z,3.78
2017-12-09T05:09:40.201Z,3.95
2017-12-09T05:12:07.773Z,4.97
2017-12-09T05:14:35.395Z,4.60
2017-12-09T05:17:02.990Z,3.97
2017-12-09T05:19:30.558Z,4.43
2017-12-09T05:21:58.198Z,3.58
2017-12-09T05:24:25.767Z,3.40
2017-12-09T05:26:53.341Z,3.67
2017-12-09T05:29:21.705Z,4.78
2017-12-09T05:31:49.278Z,4.55
2017-12-09T05:34:17.613Z,4.05
2017-12-09T05:36:45.221Z,3.72
2017-12-09T05:39:13.557Z,4.80
2017-12-09T05:41:41.125Z,4.00
2017-12-09T05:44:08.745Z,3.25
2017-12-09T05:46:36.325Z,3.97
2017-12-09T05:49:03.894Z,3.70
2017-12-09T05:51:31.507Z,3.47
2017-12-09T05:53:59.085Z,3.25
2017-12-09T05:56:26.653Z,2.65
2017-12-09T05:58:54.261Z,3.65
2017-12-09T06:01:22.601Z,2.70
2017-12-09T06:03:50.171Z,3.10
2017-12-09T06:06:17.784Z,3.20
2017-12-09T06:08:45.355Z,3.15
2017-12-09T06:11:12.921Z,3.25
2017-12-09T06:13:40.514Z,2.90
2017-12-09T06:16:08.085Z,3.50
2017-12-09T06:18:36.470Z,3.25
2017-12-09T06:21:04.802Z,3.80
2017-12-09T06:23:32.373Z,3.58
2017-12-09T06:25:59.992Z,3.10
2017-12-09T06:28:27.562Z,3.65
2017-12-09T06:30:55.142Z,3.00
2017-12-09T06:33:22.742Z,3.05
2017-12-09T06:35:51.082Z,3.50
2017-12-09T06:38:18.717Z,3.35
2017-12-09T06:40:46.296Z,3.00
2017-12-09T06:43:13.870Z,2.90
2017-12-09T06:45:41.485Z,2.65
2017-12-09T06:48:09.053Z,3.00
2017-12-09T06:50:36.625Z,3.15
2017-12-09T06:53:04.233Z,2.95
2017-12-09T06:55:31.833Z,2.78
2017-12-09T06:57:59.410Z,2.05
2017-12-09T07:00:27.061Z,2.25
2017-12-09T07:02:54.637Z,2.30
2017-12-09T07:05:22.209Z,2.58
2017-12-09T07:07:50.598Z,2.35
2017-12-09T07:10:18.946Z,1.60
2017-12-09T07:12:46.524Z,2.03
2017-12-09T07:15:14.905Z,2.10
2017-12-09T07:17:43.245Z,1.90
2017-12-09T07:20:10.817Z,2.25
2017-12-09T07:22:38.437Z,2.40
2017-12-09T07:25:06.007Z,1.75
2017-12-09T07:27:33.577Z,2.30
2017-12-09T07:30:01.190Z,2.50
2017-12-09T07:32:28.761Z,2.15
2017-12-09T07:34:56.338Z,1.75
2017-12-09T07:37:24.004Z,2.30
2017-12-09T07:39:51.573Z,2.05
2017-12-09T07:42:19.141Z,1.65
2017-12-09T07:44:46.748Z,1.65
2017-12-09T07:47:14.317Z,1.75
2017-12-09T07:49:41.886Z,1.55
2017-12-09T07:52:09.514Z,1.85
2017-12-09T07:54:37.857Z,1.90
2017-12-09T07:57:05.429Z,1.98
2017-12-09T07:59:33.389Z,1.87
2017-12-09T08:02:01.020Z,1.65
2017-12-09T08:04:28.622Z,2.05
2017-12-09T08:06:57.045Z,2.30
2017-12-09T08:09:24.618Z,1.75
2017-12-09T08:11:52.186Z,2.00
2017-12-09T08:14:19.781Z,1.80
2017-12-09T08:16:48.128Z,2.30
2017-12-09T08:19:15.736Z,3.08
2017-12-09T08:21:43.347Z,1.85
2017-12-09T08:24:10.920Z,1.90
2017-12-09T08:26:38.494Z,2.15
2017-12-09T08:29:06.889Z,1.75
2017-12-09T08:31:34.461Z,2.58
2017-12-09T08:34:02.038Z,1.65
2017-12-09T08:36:30.433Z,2.30
2017-12-09T08:38:58.001Z,2.10
2017-12-09T08:41:25.586Z,2.40
2017-12-09T08:43:53.946Z,2.05
2017-12-09T08:46:21.533Z,2.72
2017-12-09T08:48:49.149Z,2.75
2017-12-09T08:51:16.718Z,2.62
2017-12-09T08:53:44.293Z,2.10
2017-12-09T08:56:12.666Z,2.42
2017-12-09T08:58:41.006Z,2.50
2017-12-09T09:01:08.580Z,2.50
2017-12-09T09:03:36.193Z,2.47
2017-12-09T09:06:03.766Z,2.50
2017-12-09T09:08:31.345Z,2.00
2017-12-09T09:10:58.974Z,2.62
2017-12-09T09:13:26.549Z,2.60
2017-12-09T09:15:54.121Z,2.40
2017-12-09T09:18:21.764Z,2.50
2017-12-09T09:20:49.347Z,3.28
2017-12-09T09:23:16.922Z,3.15
2017-12-09T09:25:44.521Z,2.42
2017-12-09T09:28:12.950Z,2.90
2017-12-09T09:30:40.566Z,3.37
2017-12-09T09:33:08.141Z,3.30
2017-12-09T09:35:35.709Z,2.90
2017-12-09T09:38:03.346Z,3.20
2017-12-09T09:40:30.926Z,4.22
2017-12-09T09:42:58.500Z,3.30
2017-12-09T09:45:26.145Z,3.83
2017-12-09T09:47:53.763Z,4.07
2017-12-09T09:50:21.345Z,3.95
2017-12-09T09:52:49.006Z,4.22
2017-12-09T09:55:16.820Z,3.67
2017-12-09T09:57:45.254Z,3.83
2017-12-09T10:00:13.185Z,4.00
2017-12-09T10:02:41.809Z,3.40
2017-12-09T10:05:09.454Z,3.90
2017-12-09T10:07:37.774Z,4.60
2017-12-09T10:10:05.490Z,4.10
2017-12-09T10:12:33.318Z,4.07
2017-12-09T10:15:01.733Z,4.60
2017-12-09T10:17:29.433Z,4.72
2017-12-09T10:19:57.160Z,5.15
2017-12-09T10:22:24.817Z,5.00
2017-12-09T10:24:52.394Z,5.15
2017-12-09T10:27:20.014Z,5.05
2017-12-09T10:29:47.734Z,4.70
2017-12-09T10:32:15.350Z,4.53
2017-12-09T10:34:43.212Z,3.72
2017-12-09T10:37:10.881Z,4.00
2017-12-09T10:39:38.637Z,4.00
2017-12-09T10:42:07.082Z,3.20
2017-12-09T10:44:34.757Z,3.60
2017-12-09T10:47:03.338Z,3.22
2017-12-09T10:49:31.051Z,2.80
2017-12-09T10:51:58.627Z,2.90
2017-12-09T10:54:26.454Z,4.37
2017-12-09T10:56:54.030Z,4.10
2017-12-09T10:59:21.642Z,5.28
2017-12-09T11:01:50.037Z,5.05
2017-12-09T11:04:17.658Z,4.15
2017-12-09T11:06:45.237Z,3.58
2017-12-09T11:09:13.664Z,4.20
2017-12-09T11:11:41.574Z,3.92
2017-12-09T11:14:09.918Z,4.60
2017-12-09T11:16:37.546Z,5.03
2017-12-09T11:19:05.119Z,4.20
2017-12-09T11:21:32.785Z,3.87
2017-12-09T11:24:00.418Z,4.00
2017-12-09T11:26:27.998Z,3.60
2017-12-09T11:28:55.577Z,4.20
2017-12-09T11:31:23.229Z,4.20
2017-12-09T11:33:50.804Z,4.53
2017-12-09T11:36:18.399Z,4.85
2017-12-09T11:38:46.021Z,3.60
2017-12-09T11:41:13.596Z,4.15
2017-12-09T11:43:41.169Z,4.65
2017-12-09T11:46:09.561Z,4.12
2017-12-09T11:48:37.146Z,4.05
2017-12-09T11:51:04.722Z,4.80
2017-12-09T11:53:32.346Z,4.50
2017-12-09T11:55:59.930Z,4.20
2017-12-09T11:58:27.501Z,4.53
2017-12-09T12:00:55.121Z,5.07
2017-12-09T12:03:22.705Z,5.15
2017-12-09T12:05:50.277Z,4.62
2017-12-09T12:08:17.873Z,4.50
2017-12-09T12:10:46.213Z,5.43
2017-12-09T12:13:13.838Z,5.00
2017-12-09T12:15:41.410Z,4.37
2017-12-09T12:18:08.982Z,4.80
2017-12-09T12:20:36.601Z,4.82
2017-12-09T12:23:04.177Z,4.93
2017-12-09T12:25:31.748Z,4.55
2017-12-09T12:27:59.377Z,4.60
2017-12-09T12:30:26.950Z,5.15
2017-12-09T12:32:54.530Z,4.53
2017-12-09T12:35:22.137Z,4.05
2017-12-09T12:37:50.515Z,4.75
2017-12-09T12:40:18.857Z,4.45
2017-12-09T12:42:46.481Z,4.47
2017-12-09T12:45:14.057Z,4.07
2017-12-09T12:47:41.633Z,3.83
2017-12-09T12:50:09.239Z,5.60
2017-12-09T12:52:36.826Z,4.18
2017-12-09T12:55:04.401Z,4.93
2017-12-09T12:57:32.029Z,4.55
2017-12-09T12:59:59.606Z,4.12
2017-12-09T13:02:27.190Z,5.50
2017-12-09T13:04:54.833Z,4.20
2017-12-09T13:07:22.418Z,5.03
2017-12-09T13:09:50.029Z,4.87
2017-12-09T13:12:17.693Z,4.78
2017-12-09T13:14:45.273Z,4.75
2017-12-09T13:17:12.849Z,4.03
2017-12-09T13:19:40.583Z,4.50
2017-12-09T13:22:08.165Z,5.05
2017-12-09T13:24:35.748Z,4.15
2017-12-09T13:27:04.126Z,5.45
2017-12-09T13:29:32.479Z,4.65
2017-12-09T13:32:00.061Z,5.15
2017-12-09T13:34:28.442Z,4.87
2017-12-09T13:36:56.790Z,4.65
2017-12-09T13:39:24.366Z,4.15
2017-12-09T13:41:51.966Z,4.00
2017-12-09T13:44:19.545Z,4.68
2017-12-09T13:46:47.128Z,3.62
2017-12-09T13:49:14.756Z,4.40
2017-12-09T13:51:42.329Z,3.72
2017-12-09T13:54:09.906Z,4.00
2017-12-09T13:56:37.529Z,4.15
2017-12-09T13:59:05.109Z,4.70
2017-12-09T14:01:32.689Z,3.70
2017-12-09T14:04:00.302Z,3.72
2017-12-09T14:06:27.901Z,3.83
2017-12-09T14:08:55.478Z,3.50
2017-12-09T14:11:23.093Z,4.18
2017-12-09T14:13:50.674Z,3.47
2017-12-09T14:16:18.262Z,4.12
2017-12-09T14:18:46.722Z,3.67
2017-12-09T14:21:14.297Z,3.67
2017-12-09T14:23:42.684Z,3.03
2017-12-09T14:26:11.024Z,3.22
2017-12-09T14:28:38.608Z,3.40
2017-12-09T14:31:06.993Z,3.50
2017-12-09T14:33:35.341Z,3.17
2017-12-09T14:36:02.927Z,2.97
2017-12-09T14:38:31.296Z,2.70
2017-12-09T14:40:59.642Z,3.00
2017-12-09T14:43:27.261Z,3.40
2017-12-09T14:45:54.838Z,2.95
2017-12-09T14:48:22.429Z,3.62
2017-12-09T14:50:50.042Z,2.95
2017-12-09T14:53:17.613Z,2.70
2017-12-09T14:55:45.187Z,3.35
2017-12-09T14:58:12.820Z,2.90
2017-12-09T15:00:40.394Z,3.00
2017-12-09T15:03:07.972Z,2.40
2017-12-09T15:05:35.589Z,2.85
2017-12-09T15:08:03.166Z,3.22
2017-12-09T15:10:30.751Z,3.10
2017-12-09T15:12:58.382Z,2.62
2017-12-09T15:15:25.955Z,2.00
2017-12-09T15:17:53.558Z,3.15
2017-12-09T15:20:21.950Z,2.97
2017-12-09T15:22:50.292Z,2.67
2017-12-09T15:25:17.933Z,2.50
2017-12-09T15:27:45.533Z,2.80
2017-12-09T15:30:13.885Z,2.55
2017-12-09T15:32:41.957Z,2.33
2017-12-09T15:35:10.334Z,3.37
2017-12-09T15:37:37.909Z,3.22
2017-12-09T15:40:05.508Z,2.83
2017-12-09T15:42:33.078Z,2.50
2017-12-09T15:45:00.653Z,2.90
2017-12-09T15:47:28.273Z,2.53
2017-12-09T15:49:55.846Z,2.60
2017-12-09T15:52:23.426Z,2.60
2017-12-09T15:54:51.027Z,2.55
2017-12-09T15:57:19.365Z,2.72
2017-12-09T15:59:47.103Z,3.15
2017-12-09T16:02:14.674Z,2.87
2017-12-09T16:04:42.428Z,3.08
2017-12-09T16:07:10.046Z,3.75
2017-12-09T16:09:39.034Z,3.85
2017-12-09T16:12:07.398Z,3.47
2017-12-09T16:14:35.005Z,3.15
2017-12-09T16:17:02.587Z,4.03
2017-12-09T16:19:30.944Z,3.42
2017-12-09T16:21:58.566Z,3.17
2017-12-09T16:24:26.909Z,3.40
2017-12-09T16:26:54.492Z,3.62
2017-12-09T16:29:22.091Z,3.33
2017-12-09T16:31:49.710Z,3.12
2017-12-09T16:34:17.289Z,3.55
2017-12-09T16:36:45.625Z,3.03
2017-12-09T16:39:15.057Z,2.72
2017-12-09T16:41:45.147Z,3.15
2017-12-09T16:44:12.882Z,3.35
2017-12-09T16:46:42.135Z,2.95
2017-12-09T16:49:10.547Z,3.20
2017-12-09T16:51:38.126Z,3.70
2017-12-09T16:54:05.749Z,3.70
2017-12-09T16:56:33.568Z,3.15
2017-12-09T16:59:02.185Z,3.60
2017-12-09T17:01:30.573Z,3.05
2017-12-09T17:03:58.256Z,2.55
2017-12-09T17:06:25.838Z,3.10
2017-12-09T17:08:53.480Z,3.25
2017-12-09T17:11:21.118Z,2.90
2017-12-09T17:13:48.702Z,3.20
2017-12-09T17:16:16.302Z,3.20
2017-12-09T17:18:45.386Z,3.25
2017-12-09T17:21:13.005Z,4.30
2017-12-09T17:23:40.583Z,3.80
2017-12-09T17:26:08.166Z,3.42
2017-12-09T17:28:35.776Z,3.33
2017-12-09T17:31:03.358Z,3.10
2017-12-09T17:33:30.938Z,2.97
2017-12-09T17:35:58.539Z,3.37
2017-12-09T17:38:26.113Z,3.53
2017-12-09T17:40:53.693Z,3.42
2017-12-09T17:43:21.306Z,3.37
2017-12-09T17:45:49.647Z,2.90
2017-12-09T17:48:17.226Z,3.50
2017-12-09T17:50:44.829Z,3.22
2017-12-09T17:53:12.413Z,4.28
2017-12-09T17:55:40.042Z,2.87
2017-12-09T17:58:07.618Z,2.33
2017-12-09T18:00:35.194Z,3.12
2017-12-09T18:03:02.822Z,3.10
2017-12-09T18:05:30.399Z,3.72
2017-12-09T18:07:57.981Z,2.97
2017-12-09T18:10:25.628Z,3.80
2017-12-09T18:12:53.205Z,2.90
2017-12-09T18:15:20.802Z,3.65
2017-12-09T18:17:48.402Z,3.60
2017-12-09T18:20:15.985Z,3.10
2017-12-09T18:22:43.565Z,3.05
2017-12-09T18:25:11.949Z,3.53
2017-12-09T18:27:39.543Z,3.70
2017-12-09T18:30:07.924Z,3.67
2017-12-09T18:32:35.522Z,3.60
2017-12-09T18:35:03.108Z,3.47
2017-12-09T18:37:30.730Z,3.60
2017-12-09T18:39:58.307Z,2.90
2017-12-09T18:42:26.646Z,3.33
2017-12-09T18:44:54.246Z,3.35
2017-12-09T18:47:22.605Z,3.12
2017-12-09T18:49:50.206Z,3.08
2017-12-09T18:52:17.790Z,3.95
2017-12-09T18:54:45.409Z,3.35
2017-12-09T18:57:13.753Z,3.72
2017-12-09T18:59:41.337Z,3.17
2017-12-09T19:02:09.722Z,3.30
2017-12-09T19:04:38.065Z,4.25
2017-12-09T19:07:05.690Z,3.83
2017-12-09T19:09:33.266Z,3.42
2017-12-09T19:12:00.838Z,3.62
2017-12-09T19:14:28.458Z,3.45
2017-12-09T19:16:56.037Z,4.80
2017-12-09T19:19:23.621Z,4.60
2017-12-09T19:21:51.249Z,3.55
2017-12-09T19:24:18.833Z,3.30
2017-12-09T19:26:46.409Z,3.97
2017-12-09T19:29:14.032Z,4.55
2017-12-09T19:31:41.606Z,4.15
2017-12-09T19:34:09.190Z,3.62
2017-12-09T19:36:37.579Z,4.25
2017-12-09T19:39:05.926Z,3.37
2017-12-09T19:41:33.513Z,3.42
2017-12-09T19:44:01.890Z,3.75
2017-12-09T19:46:30.233Z,4.00
2017-12-09T19:48:57.811Z,3.80
2017-12-09T19:51:25.439Z,4.47
2017-12-09T19:53:54.153Z,4.20
2017-12-09T19:56:22.725Z,5.00
2017-12-09T19:58:50.317Z,5.07
2017-12-09T20:01:18.690Z,3.80
2017-12-09T20:03:47.034Z,3.00
2017-12-09T20:06:14.605Z,3.25
2017-12-09T20:08:42.981Z,4.05
2017-12-09T20:11:10.566Z,3.70
2017-12-09T20:13:38.193Z,3.95
2017-12-09T20:16:07.069Z,4.05
2017-12-09T20:18:34.764Z,3.33
2017-12-09T20:21:03.979Z,3.70
2017-12-09T20:23:31.550Z,4.18
2017-12-09T20:25:59.133Z,3.60
2017-12-09T20:28:27.502Z,4.10
2017-12-09T20:30:55.077Z,3.80
2017-12-09T20:33:23.470Z,3.80
2017-12-09T20:35:51.106Z,4.40
2017-12-09T20:38:20.561Z,3.65
2017-12-09T20:40:48.957Z,3.75
2017-12-09T20:43:16.532Z,4.00
2017-12-09T20:45:44.113Z,3.40
2017-12-09T20:48:11.773Z,4.15
2017-12-09T20:50:39.321Z,3.58
2017-12-09T20:53:06.891Z,3.58
2017-12-09T20:55:34.493Z,4.12
2017-12-09T20:58:02.838Z,4.18
2017-12-09T21:00:30.462Z,7.35
2017-12-09T21:02:58.038Z,3.83
2017-12-09T21:05:25.613Z,4.25
2017-12-09T21:07:53.229Z,4.25
2017-12-09T21:10:22.149Z,3.78
2017-12-09T21:12:49.830Z,3.70
2017-12-09T21:15:17.430Z,4.15
2017-12-09T21:17:45.007Z,3.95
2017-12-09T21:20:12.634Z,4.57
2017-12-09T21:22:40.974Z,4.20
2017-12-09T21:25:08.553Z,4.65
2017-12-09T21:27:36.153Z,4.37
2017-12-09T21:30:03.733Z,4.22
2017-12-09T21:32:31.453Z,3.83
2017-12-09T21:34:59.794Z,3.47
2017-12-09T21:37:27.370Z,3.95
2017-12-09T21:39:55.774Z,4.22
2017-12-09T21:42:23.352Z,3.90
2017-12-09T21:44:50.930Z,4.00
2017-12-09T21:47:19.321Z,4.28
2017-12-09T21:49:46.890Z,4.30
2017-12-09T21:52:14.506Z,4.15
2017-12-09T21:54:42.205Z,3.90
2017-12-09T21:57:09.774Z,4.00
2017-12-09T21:59:37.346Z,3.20
2017-12-09T22:02:05.726Z,4.20
2017-12-09T22:04:34.067Z,3.60
2017-12-09T22:07:01.638Z,3.47
2017-12-09T22:09:29.245Z,4.05
2017-12-09T22:11:56.818Z,3.62
2017-12-09T22:14:24.385Z,3.45
2017-12-09T22:16:51.997Z,3.78
2017-12-09T22:19:20.338Z,3.05
2017-12-09T22:21:47.909Z,3.28
2017-12-09T22:24:15.530Z,3.80
2017-12-09T22:26:43.101Z,3.35
2017-12-09T22:29:10.675Z,3.03
2017-12-09T22:31:38.294Z,2.85
2017-12-09T22:34:05.865Z,3.08
2017-12-09T22:36:33.438Z,2.87
2017-12-09T22:39:01.150Z,3.05
2017-12-09T22:41:29.485Z,3.45
2017-12-09T22:43:57.053Z,4.10
2017-12-09T22:46:24.645Z,3.80
2017-12-09T22:48:52.982Z,2.87
2017-12-09T22:51:20.593Z,3.72
2017-12-09T22:53:48.174Z,3.55
2017-12-09T22:56:15.749Z,3.30
2017-12-09T22:58:43.358Z,3.20
2017-12-09T23:01:10.937Z,3.10
2017-12-09T23:03:38.511Z,3.33
2017-12-09T23:06:06.110Z,3.28
2017-12-09T23:08:34.455Z,2.87
2017-12-09T23:11:02.066Z,3.05
2017-12-09T23:13:30.405Z,3.37
2017-12-09T23:15:57.973Z,3.25
2017-12-09T23:18:25.586Z,2.92
2017-12-09T23:20:53.169Z,3.00
2017-12-09T23:23:20.746Z,2.70
2017-12-09T23:25:48.342Z,2.87
2017-12-09T23:28:15.914Z,2.60
